Time;durP1;ratioP1;P1;durP2;ratioP2;P2;SDS_P1;SDS_P2;PMS_P1;PMS_P2;Temp;Humidity;BMP_temperature;BMP_pressure;BME280_temperature;BME280_humidity;BME280_pressure;Samples;Min_cycle;Max_cycle;Signal;HPM_P1;HPM_P2
2023/04/05 00:01:39;;;;;;;12.80;5.85;;;2.10;99.90;;;0.53;90.55;102108.13;4974814;28;20080;-77
2023/04/05 00:04:06;;;;;;;12.45;6.35;;;2.10;99.90;;;0.56;90.01;102111.63;4975262;28;20037;-78
2023/04/05 00:06:33;;;;;;;11.90;5.78;;;2.10;99.90;;;0.59;90.41;102113.41;5024893;28;20036;-78
2023/04/05 00:09:02;;;;;;;14.13;6.30;;;2.20;99.90;;;0.64;90.20;102111.75;5001102;28;20041;-76
2023/04/05 00:11:34;;;;;;;14.45;5.63;;;2.20;99.90;;;0.69;89.98;102117.00;4986787;28;20086;-78
2023/04/05 00:14:02;;;;;;;11.30;5.50;;;2.20;99.90;;;0.70;89.57;102109.25;4993754;28;20036;-78
2023/04/05 00:16:29;;;;;;;12.30;5.72;;;2.30;99.90;;;0.80;89.44;102107.72;5021399;28;20047;-79
2023/04/05 00:19:00;;;;;;;14.00;6.07;;;2.40;99.90;;;0.89;88.86;102109.56;4949046;28;20052;-77
2023/04/05 00:21:25;;;;;;;15.85;6.85;;;2.40;99.90;;;0.94;87.81;102108.78;4982262;28;20029;-77
2023/04/05 00:24:06;;;;;;;12.55;5.78;;;2.40;99.90;;;0.96;87.95;102111.41;4964491;28;20051;-77
2023/04/05 00:26:32;;;;;;;14.63;5.68;;;2.50;99.90;;;1.00;87.75;102103.69;4985375;28;20037;-79
2023/04/05 00:28:58;;;;;;;18.45;5.90;;;2.50;99.90;;;1.03;87.31;102101.13;5017436;28;20040;-78
2023/04/05 00:31:23;;;;;;;12.15;5.78;;;2.60;99.90;;;1.10;86.70;102099.53;4993700;28;20151;-76
2023/04/05 00:33:49;;;;;;;19.38;6.47;;;2.60;99.90;;;1.14;86.59;102092.63;4990869;28;20041;-78
2023/04/05 00:36:21;;;;;;;10.98;5.80;;;2.70;99.90;;;1.20;86.27;102105.69;5008808;28;20084;-78
2023/04/05 00:38:48;;;;;;;20.42;6.25;;;2.70;99.90;;;1.22;85.94;102099.66;4987056;28;20049;-77
2023/04/05 00:41:15;;;;;;;17.58;6.70;;;2.70;99.90;;;1.24;85.77;102091.91;4975349;28;20508;-78
2023/04/05 00:43:41;;;;;;;16.52;6.00;;;2.70;99.90;;;1.27;85.61;102091.09;5002199;28;20072;-78
2023/04/05 00:46:08;;;;;;;12.00;5.82;;;2.80;99.90;;;1.28;85.52;102100.63;4996951;28;20034;-77
2023/04/05 00:48:38;;;;;;;15.20;6.10;;;2.80;99.90;;;1.29;85.45;102094.56;4989948;28;20032;-77
2023/04/05 00:51:08;;;;;;;15.82;6.68;;;2.80;99.90;;;1.29;85.23;102092.84;4987689;28;20082;-78
2023/04/05 00:53:35;;;;;;;14.82;5.88;;;2.80;99.90;;;1.29;85.14;102089.38;5014396;28;20058;-77
2023/04/05 00:56:05;;;;;;;12.50;5.72;;;2.80;99.90;;;1.27;84.97;102086.75;5004340;28;20146;-77
2023/04/05 00:58:32;;;;;;;11.75;6.10;;;2.80;99.90;;;1.24;85.61;102081.53;4984480;28;21269;-78
2023/04/05 01:01:15;;;;;;;14.48;6.30;;;2.70;99.90;;;1.19;85.74;102078.03;5007242;28;20040;-77
2023/04/05 01:03:52;;;;;;;15.57;6.57;;;2.70;99.90;;;1.12;86.30;102076.16;4996336;28;20036;-77
2023/04/05 01:06:57;;;;;;;15.90;6.53;;;2.60;99.90;;;1.07;87.02;102078.69;5001487;28;20098;-77
2023/04/05 01:09:57;;;;;;;12.85;6.25;;;2.60;99.90;;;0.99;88.13;102086.38;5036313;28;20120;-77
2023/04/05 01:12:36;;;;;;;16.23;5.55;;;2.60;99.90;;;0.91;89.19;102076.75;4927295;28;20052;-77
2023/04/05 01:15:04;;;;;;;14.65;6.53;;;2.50;99.90;;;0.90;89.95;102082.78;5005959;28;20049;-77
2023/04/05 01:17:35;;;;;;;13.98;6.95;;;2.60;99.90;;;1.01;89.86;102088.97;5006361;28;20525;-78
2023/04/05 01:20:14;;;;;;;13.73;6.50;;;2.60;99.90;;;1.05;89.55;102083.00;5002807;28;20502;-79
2023/04/05 01:23:57;;;;;;;17.50;7.25;;;2.60;99.90;;;1.08;88.85;102075.28;4986330;28;20470;-77
2023/04/05 01:27:10;;;;;;;17.63;7.25;;;2.60;99.90;;;1.09;88.29;102073.53;4957476;28;20111;-77
2023/04/05 01:30:10;;;;;;;16.05;7.32;;;2.60;99.90;;;1.09;88.27;102073.53;4959304;28;20041;-77
2023/04/05 01:33:08;;;;;;;24.88;8.20;;;2.60;99.90;;;1.08;88.24;102088.25;4977905;28;20041;-78
2023/04/05 01:35:41;;;;;;;15.57;7.47;;;2.50;99.90;;;0.97;89.60;102077.72;4999567;28;20487;-78
2023/04/05 01:38:11;;;;;;;15.20;7.32;;;2.60;99.90;;;1.06;88.84;102066.59;5034279;28;20049;-77
2023/04/05 01:40:39;;;;;;;20.85;7.40;;;2.60;99.90;;;1.12;88.51;102061.47;4990923;28;20511;-79
2023/04/05 01:43:17;;;;;;;16.10;8.35;;;2.60;99.90;;;1.17;88.28;102065.00;5017930;28;20124;-77
2023/04/05 01:45:45;;;;;;;15.20;7.88;;;2.70;99.90;;;1.20;87.79;102064.19;5014190;28;20617;-76
2023/04/05 01:48:12;;;;;;;15.55;7.95;;;2.70;99.90;;;1.19;87.62;102058.13;5012642;28;20464;-77
2023/04/05 01:50:38;;;;;;;13.02;7.60;;;2.70;99.90;;;1.20;87.48;102061.59;5017135;28;20033;-78
2023/04/05 01:53:10;;;;;;;18.08;7.55;;;2.70;99.90;;;1.19;87.02;102065.91;5022706;28;20032;-77
2023/04/05 01:55:35;;;;;;;18.38;8.60;;;2.60;99.90;;;1.03;88.20;102072.59;5028198;28;20029;-77
2023/04/05 01:58:01;;;;;;;20.83;8.40;;;2.60;99.90;;;1.07;88.38;102064.88;5018793;28;20037;-77
2023/04/05 02:00:27;;;;;;;22.10;8.13;;;2.60;99.90;;;1.07;88.63;102072.66;5011277;28;20127;-77
2023/04/05 02:02:53;;;;;;;15.80;7.80;;;2.60;99.90;;;1.11;88.80;102069.25;5015590;28;20036;-77
2023/04/05 02:05:19;;;;;;;19.70;8.38;;;2.70;99.90;;;1.18;88.79;102068.47;5028861;28;20113;-78
2023/04/05 02:07:49;;;;;;;19.98;8.73;;;2.70;99.90;;;1.24;88.15;102060.78;4978323;28;20642;-77
2023/04/05 02:10:18;;;;;;;14.15;7.53;;;2.70;99.90;;;1.28;87.84;102059.09;5000048;28;20080;-77
2023/04/05 02:12:44;;;;;;;15.93;8.32;;;2.80;99.90;;;1.32;87.46;102066.94;5013253;28;20162;-77
2023/04/05 02:15:11;;;;;;;19.40;8.40;;;2.80;99.90;;;1.34;87.75;102061.75;4975757;28;20534;-77
2023/04/05 02:17:44;;;;;;;16.25;8.23;;;2.80;99.90;;;1.37;87.12;102072.19;5010196;28;20037;-78
2023/04/05 02:20:13;;;;;;;16.23;8.32;;;2.80;99.90;;;1.37;87.40;102064.41;5021045;28;20033;-77
2023/04/05 02:22:44;;;;;;;17.73;8.32;;;2.80;99.90;;;1.39;87.20;102071.34;5005801;28;20041;-79
2023/04/05 02:25:11;;;;;;;18.17;8.75;;;2.90;99.90;;;1.42;87.01;102071.38;4998542;28;20025;-76
2023/04/05 02:27:36;;;;;;;16.77;8.25;;;2.90;99.90;;;1.44;86.81;102067.09;4971679;28;20505;-77
2023/04/05 02:30:03;;;;;;;18.05;8.85;;;2.90;99.90;;;1.49;86.75;102069.75;5013876;28;20033;-77
2023/04/05 02:32:30;;;;;;;17.95;8.80;;;3.00;99.90;;;1.53;86.63;102068.06;5027738;28;20130;-77
2023/04/05 02:34:57;;;;;;;18.70;8.52;;;3.00;99.90;;;1.54;86.58;102064.63;5008646;28;20140;-77
2023/04/05 02:37:24;;;;;;;16.05;8.77;;;3.00;99.90;;;1.57;86.54;102059.44;4982192;28;20060;-77
2023/04/05 02:39:51;;;;;;;18.85;9.35;;;3.00;99.90;;;1.59;86.47;102060.34;4998605;28;20025;-77
2023/04/05 02:42:17;;;;;;;19.27;9.05;;;3.00;99.90;;;1.60;86.61;102055.19;4979486;28;20052;-78
2023/04/05 02:44:43;;;;;;;23.85;9.30;;;3.10;99.90;;;1.62;86.27;102047.38;5012603;28;20025;-77
2023/04/05 02:47:08;;;;;;;20.23;8.90;;;3.10;99.90;;;1.63;85.97;102050.00;4978536;28;20120;-77
2023/04/05 02:49:36;;;;;;;17.27;9.40;;;3.10;99.90;;;1.61;86.09;102043.94;4980661;28;20136;-77
2023/04/05 02:52:05;;;;;;;22.58;9.25;;;3.10;99.90;;;1.49;86.78;102050.69;5016719;28;20432;-77
2023/04/05 02:54:31;;;;;;;18.48;9.55;;;3.00;99.90;;;1.50;87.79;102049.84;4991893;28;20500;-77
2023/04/05 02:57:01;;;;;;;22.52;9.30;;;3.00;99.90;;;1.52;87.94;102049.00;5014704;28;20029;-77
2023/04/05 02:59:29;;;;;;;16.70;9.98;;;3.00;99.90;;;1.53;87.68;102037.75;4991998;28;20451;-77
2023/04/05 03:01:57;;;;;;;20.40;9.20;;;3.00;99.90;;;1.55;87.52;102046.44;5022851;28;20068;-77
2023/04/05 03:04:25;;;;;;;20.73;9.63;;;3.00;99.90;;;1.51;87.77;102038.59;5010896;28;20056;-77
2023/04/05 03:06:53;;;;;;;21.83;10.15;;;3.00;99.90;;;1.50;87.85;102035.16;5021110;28;20094;-77
2023/04/05 03:09:27;;;;;;;20.25;8.70;;;3.00;99.90;;;1.53;87.67;102040.34;5032983;28;20044;-78
2023/04/05 03:11:53;;;;;;;18.30;9.15;;;3.00;99.90;;;1.48;87.93;102030.78;4994399;28;20029;-77
2023/04/05 03:14:19;;;;;;;16.80;9.23;;;3.00;99.90;;;1.53;87.63;102031.72;5017029;28;20048;-76
2023/04/05 03:16:45;;;;;;;18.83;9.52;;;3.00;99.90;;;1.53;87.62;102029.97;5015845;28;20179;-77
2023/04/05 03:19:17;;;;;;;21.80;10.02;;;3.00;99.90;;;1.46;87.74;102035.09;4965115;28;20041;-78
2023/04/05 03:21:44;;;;;;;24.80;9.30;;;3.00;99.90;;;1.44;88.10;102033.34;4992073;28;20974;-77
2023/04/05 03:24:10;;;;;;;20.95;9.05;;;3.00;99.90;;;1.44;88.28;102035.06;4983610;28;20049;-78
2023/04/05 03:26:36;;;;;;;17.92;8.75;;;2.90;99.90;;;1.43;88.58;102022.97;5015693;28;20064;-77
2023/04/05 03:29:01;;;;;;;19.15;9.02;;;2.90;99.90;;;1.42;88.67;102032.44;4993060;28;20045;-78
2023/04/05 03:31:30;;;;;;;19.88;9.10;;;2.90;99.90;;;1.35;88.82;102032.38;5015435;28;20036;-79
2023/04/05 03:33:56;;;;;;;18.00;9.48;;;2.90;99.90;;;1.37;89.34;102026.34;5003147;28;20040;-77
2023/04/05 03:36:22;;;;;;;22.10;9.23;;;2.90;99.90;;;1.40;89.25;102031.59;4984899;28;20383;-77
2023/04/05 03:38:49;;;;;;;25.60;10.13;;;2.90;99.90;;;1.40;89.06;102031.59;5027374;28;20041;-77
2023/04/05 03:41:15;;;;;;;20.42;9.25;;;2.90;99.90;;;1.30;90.10;102034.91;4995480;28;20082;-77
2023/04/05 03:43:42;;;;;;;23.70;9.32;;;2.80;99.90;;;1.22;90.51;102037.41;5008748;28;20047;-78
2023/04/05 03:46:08;;;;;;;15.00;8.15;;;2.80;99.90;;;1.23;90.89;102033.97;5026561;28;20040;-77
2023/04/05 03:48:36;;;;;;;14.07;7.22;;;2.80;99.90;;;1.21;91.07;102040.00;4986932;28;20037;-77
2023/04/05 03:51:02;;;;;;;13.30;6.80;;;2.80;99.90;;;1.20;90.83;102033.91;5024642;28;20127;-77
2023/04/05 03:53:28;;;;;;;13.27;6.20;;;2.80;99.90;;;1.17;90.76;102033.03;5020855;28;20416;-78
2023/04/05 03:55:54;;;;;;;11.50;4.35;;;2.80;99.90;;;1.17;90.73;102031.28;4986006;28;20048;-77
2023/04/05 03:58:20;;;;;;;10.07;5.35;;;2.80;99.90;;;1.26;90.36;102034.84;5016926;28;20099;-77
2023/04/05 04:00:46;;;;;;;11.40;4.80;;;2.80;99.90;;;1.35;90.24;102038.44;4962661;28;20040;-77
2023/04/05 04:03:15;;;;;;;14.95;4.65;;;2.90;99.90;;;1.37;89.94;102036.72;4989655;28;20086;-77
2023/04/05 04:05:40;;;;;;;12.45;4.15;;;2.90;99.90;;;1.39;89.65;102029.81;5006295;28;20095;-77
2023/04/05 04:08:08;;;;;;;12.60;4.57;;;2.90;99.90;;;1.44;89.37;102028.16;5003012;28;20033;-77
2023/04/05 04:10:34;;;;;;;10.82;3.63;;;3.00;99.90;;;1.50;88.70;102024.75;5012409;28;20091;-77
2023/04/05 04:13:00;;;;;;;7.85;3.38;;;3.00;99.90;;;1.50;88.43;102022.16;4994450;28;20126;-78
2023/04/05 04:15:26;;;;;;;11.10;3.28;;;3.00;99.90;;;1.54;87.98;102021.34;4983838;28;20478;-79
2023/04/05 04:17:56;;;;;;;5.93;2.92;;;3.10;99.90;;;1.61;87.81;102017.09;4996481;28;20041;-78
2023/04/05 04:20:22;;;;;;;9.40;3.20;;;3.10;99.90;;;1.65;87.23;102013.69;4976330;28;20109;-78
2023/04/05 04:22:48;;;;;;;9.80;4.00;;;3.10;99.90;;;1.58;87.26;102022.28;4975383;28;20112;-78
2023/04/05 04:25:17;;;;;;;8.85;3.75;;;3.10;99.90;;;1.58;87.49;102019.69;5021078;28;20033;-78
2023/04/05 04:27:49;;;;;;;5.78;2.63;;;3.00;99.90;;;1.44;88.47;102027.28;5028085;28;20101;-78
2023/04/05 04:30:15;;;;;;;13.02;3.10;;;3.00;99.90;;;1.38;88.48;102028.09;4999661;28;20045;-78
2023/04/05 04:32:54;;;;;;;7.05;3.10;;;3.00;99.90;;;1.38;88.65;102030.69;5017375;28;20025;-78
2023/04/05 04:35:23;;;;;;;8.70;3.60;;;2.90;99.90;;;1.43;88.65;102034.19;4991184;28;20620;-77
2023/04/05 04:38:04;;;;;;;9.18;3.53;;;3.00;99.90;;;1.43;88.44;102038.53;4988327;28;20041;-78
2023/04/05 04:40:39;;;;;;;8.70;3.20;;;2.90;99.90;;;1.36;88.57;102041.88;5001660;28;20028;-77
2023/04/05 04:43:16;;;;;;;6.93;3.10;;;2.90;99.90;;;1.25;88.99;102040.88;4972905;28;20037;-79
2023/04/05 04:45:45;;;;;;;6.90;2.80;;;2.90;99.90;;;1.23;89.27;102039.16;4966066;28;20037;-77
2023/04/05 04:48:13;;;;;;;3.53;1.95;;;2.80;99.90;;;1.25;89.60;102044.34;4993093;28;20029;-78
2023/04/05 04:50:45;;;;;;;11.48;2.42;;;2.90;99.90;;;1.33;89.39;102050.50;4984115;28;20063;-78
2023/04/05 04:53:12;;;;;;;6.82;1.65;;;2.90;99.90;;;1.30;89.08;102050.47;5002243;28;20033;-78
2023/04/05 04:55:41;;;;;;;6.80;2.10;;;2.90;99.90;;;1.34;89.31;102047.06;4964056;28;20382;-77
2023/04/05 04:58:12;;;;;;;8.32;2.25;;;2.90;99.90;;;1.42;89.18;102050.63;5032137;28;20130;-78
2023/04/05 05:00:40;;;;;;;6.03;1.52;;;2.90;99.90;;;1.35;89.08;102046.22;4986739;28;20497;-78
2023/04/05 05:03:07;;;;;;;7.50;1.92;;;2.90;99.90;;;1.34;89.08;102052.28;4992002;28;20045;-77
2023/04/05 05:05:33;;;;;;;5.60;1.85;;;2.90;99.90;;;1.33;89.58;102053.09;4971117;28;20091;-77
2023/04/05 05:08:08;;;;;;;7.88;2.08;;;2.90;99.90;;;1.40;89.21;102054.94;5014905;28;20029;-78
2023/04/05 05:10:33;;;;;;;5.53;1.33;;;2.90;99.90;;;1.39;89.13;102045.41;4999737;28;20041;-79
2023/04/05 05:12:59;;;;;;;2.92;1.40;;;2.90;99.90;;;1.44;89.00;102055.84;5008804;28;20145;-78
2023/04/05 05:15:26;;;;;;;5.30;1.92;;;2.90;99.90;;;1.39;89.01;102048.00;5018856;28;20033;-78
2023/04/05 05:17:54;;;;;;;7.40;1.60;;;3.00;99.90;;;1.43;89.05;102047.19;4980704;28;20045;-79
2023/04/05 05:20:21;;;;;;;6.88;1.70;;;3.00;99.90;;;1.50;88.90;102052.44;4980086;28;20033;-78
2023/04/05 05:22:47;;;;;;;3.40;1.30;;;3.00;99.90;;;1.48;88.48;102051.56;4995480;28;20044;-76
2023/04/05 05:25:13;;;;;;;8.93;1.48;;;3.00;99.90;;;1.48;88.43;102047.22;4984621;28;20045;-78
2023/04/05 05:27:40;;;;;;;5.90;1.30;;;3.00;99.90;;;1.53;88.58;102044.69;4975937;28;20041;-77
2023/04/05 05:30:07;;;;;;;5.10;1.50;;;3.00;99.90;;;1.48;88.61;102054.16;4989694;28;20061;-78
2023/04/05 05:32:36;;;;;;;4.28;1.50;;;3.00;99.90;;;1.60;88.72;102051.72;4968511;28;20504;-79
2023/04/05 05:35:02;;;;;;;5.18;1.45;;;3.10;99.90;;;1.64;88.43;102053.47;4970185;28;20044;-77
2023/04/05 05:37:31;;;;;;;3.97;1.40;;;3.10;99.90;;;1.69;88.80;102053.53;5021088;28;20021;-77
2023/04/05 05:39:57;;;;;;;11.65;1.90;;;3.20;99.90;;;1.67;88.91;102053.53;5003402;28;20030;-77
2023/04/05 05:42:26;;;;;;;3.63;1.30;;;3.10;99.90;;;1.63;89.17;102051.75;5002444;28;20033;-78
2023/04/05 05:44:52;;;;;;;7.00;1.67;;;3.10;99.90;;;1.53;89.64;102050.75;4962507;28;20029;-77
2023/04/05 05:47:17;;;;;;;6.05;1.40;;;3.10;99.90;;;1.59;89.31;102058.59;4991571;28;20191;-78
2023/04/05 05:49:43;;;;;;;7.72;1.42;;;3.10;99.90;;;1.65;89.14;102057.81;4966265;28;20037;-78
2023/04/05 05:52:09;;;;;;;2.97;1.30;;;3.20;99.90;;;1.64;89.23;102058.66;5005846;28;20034;-77
2023/04/05 05:54:35;;;;;;;6.65;1.40;;;3.10;99.90;;;1.64;89.37;102061.25;5009691;28;20548;-78
2023/04/05 05:57:01;;;;;;;5.43;1.40;;;3.20;99.90;;;1.68;89.14;102056.97;4991188;28;20033;-77
2023/04/05 05:59:29;;;;;;;7.80;1.80;;;3.20;99.90;;;1.63;88.88;102051.75;4976516;28;20382;-77
2023/04/05 06:01:57;;;;;;;4.07;1.25;;;3.20;99.90;;;1.78;88.58;102057.09;4969273;28;20041;-77
2023/04/05 06:04:23;;;;;;;7.45;1.90;;;3.30;99.90;;;1.88;88.47;102057.19;5007805;28;20110;-77
2023/04/05 06:06:50;;;;;;;10.60;2.05;;;3.40;99.90;;;1.91;88.14;102049.44;4960079;28;20038;-77
2023/04/05 06:09:16;;;;;;;5.97;1.60;;;3.40;99.90;;;1.77;87.75;102041.50;4992637;28;20046;-78
2023/04/05 06:11:42;;;;;;;4.30;1.35;;;3.30;99.90;;;1.67;87.88;102040.53;5014429;28;20029;-78
2023/04/05 06:14:15;;;;;;;6.95;1.40;;;3.30;99.90;;;1.65;88.09;102050.03;5004980;28;20056;-77
2023/04/05 06:16:41;;;;;;;4.85;1.25;;;3.30;99.90;;;1.77;88.15;102049.28;5005878;28;20025;-77
2023/04/05 06:19:07;;;;;;;3.40;1.42;;;3.30;99.90;;;1.71;88.37;102042.31;5005728;28;20400;-77
2023/04/05 06:21:32;;;;;;;3.75;1.50;;;3.30;99.90;;;1.68;88.01;102047.47;4969283;28;20573;-76
2023/04/05 06:23:58;;;;;;;10.02;1.45;;;3.30;99.90;;;1.77;87.82;102047.59;5013869;28;20179;-78
2023/04/05 06:26:33;;;;;;;7.15;1.40;;;3.40;99.90;;;1.96;87.48;102050.34;4981613;28;20128;-78
2023/04/05 06:28:59;;;;;;;5.93;1.30;;;3.40;99.90;;;2.06;87.12;102049.59;5009363;28;20033;-76
2023/04/05 06:31:34;;;;;;;5.90;1.58;;;3.50;99.90;;;2.06;86.88;102044.41;5030661;28;20400;-79
2023/04/05 06:34:00;;;;;;;4.93;1.40;;;3.60;99.90;;;2.19;86.56;102045.38;4976705;28;20091;-78
2023/04/05 06:36:28;;;;;;;11.07;1.40;;;3.70;99.90;;;2.33;86.38;102048.09;4992525;28;20132;-78
2023/04/05 06:38:54;;;;;;;5.82;1.98;;;3.70;99.90;;;2.44;85.66;102046.47;4990158;28;20037;-79
2023/04/05 06:41:22;;;;;;;5.53;1.75;;;3.90;99.90;;;2.59;85.26;102044.00;4940482;28;20041;-78
2023/04/05 06:43:49;;;;;;;11.68;2.63;;;3.90;99.90;;;2.62;85.09;102044.00;5002578;28;20036;-78
2023/04/05 06:46:15;;;;;;;4.32;1.90;;;4.00;99.90;;;2.73;84.49;102038.03;4987262;28;20037;-78
2023/04/05 06:48:43;;;;;;;7.20;1.50;;;4.10;99.90;;;2.76;83.94;102038.91;5022215;28;20030;-78
2023/04/05 06:51:09;;;;;;;4.80;1.48;;;4.20;99.90;;;2.80;83.44;102043.25;5013836;28;20037;-78
2023/04/05 06:53:42;;;;;;;5.75;1.10;;;4.20;99.90;;;2.84;83.30;102038.97;4990508;28;20037;-80
2023/04/05 06:56:07;;;;;;;7.95;1.27;;;4.20;99.90;;;2.88;82.81;102035.53;5024928;28;20401;-78
2023/04/05 06:58:33;;;;;;;6.75;1.38;;;4.30;99.90;;;2.91;82.62;102027.72;5003472;28;20040;-77
2023/04/05 07:01:00;;;;;;;7.53;1.50;;;4.30;99.90;;;2.92;82.49;102031.22;4995618;28;20029;-78
2023/04/05 07:03:27;;;;;;;7.28;1.58;;;4.30;99.90;;;2.97;82.39;102026.91;4974317;28;20034;-78
2023/04/05 07:05:58;;;;;;;7.88;1.40;;;4.30;99.90;;;2.97;82.85;102027.75;4971408;28;20128;-79
2023/04/05 07:08:26;;;;;;;10.27;3.83;;;4.30;99.90;;;2.97;82.80;102027.75;4984732;28;20076;-78
2023/04/05 07:10:54;;;;;;;11.07;5.05;;;4.40;99.90;;;3.08;82.74;102035.63;5018683;28;20033;-79
2023/04/05 07:13:26;;;;;;;6.07;2.60;;;4.40;99.90;;;3.13;82.44;102038.25;4989622;28;20051;-78
2023/04/05 07:16:01;;;;;;;8.13;2.83;;;4.50;99.90;;;3.23;82.62;102038.31;4978555;28;20037;-78
2023/04/05 07:18:29;;;;;;;4.60;1.60;;;4.50;99.90;;;3.37;82.43;102030.56;5006345;28;20069;-79
2023/04/05 07:21:00;;;;;;;9.07;1.80;;;4.70;99.90;;;3.54;82.42;102041.03;5006372;28;20029;-80
2023/04/05 07:23:33;;;;;;;6.68;1.90;;;4.80;99.90;;;3.73;82.45;102034.16;4994339;28;20040;-79
2023/04/05 07:26:07;;;;;;;8.02;1.88;;;4.90;99.90;;;3.93;81.42;102035.94;4954781;28;20035;-78
2023/04/05 07:28:35;;;;;;;5.35;1.83;;;5.10;99.90;;;4.12;81.59;102024.66;4959186;28;20021;-79
2023/04/05 07:31:03;;;;;;;6.63;1.73;;;5.30;99.90;;;4.38;80.91;102027.28;4971808;28;20037;-78
2023/04/05 07:33:31;;;;;;;6.13;2.08;;;5.60;99.90;;;4.59;80.55;102025.53;5005102;28;20754;-78
2023/04/05 07:35:57;;;;;;;5.35;1.55;;;5.70;99.90;;;4.82;79.70;102031.59;5006569;28;20048;-81
2023/04/05 07:38:30;;;;;;;8.85;2.42;;;5.90;99.90;;;4.94;78.93;102031.53;5002235;28;20415;-79
2023/04/05 07:40:56;;;;;;;11.75;2.75;;;6.00;99.90;;;5.03;77.63;102029.78;5025352;28;20033;-80
2023/04/05 07:43:24;;;;;;;8.90;2.60;;;6.10;99.90;;;5.02;76.92;102031.53;4979686;28;20060;-78
2023/04/05 07:45:52;;;;;;;6.22;2.00;;;6.20;99.90;;;5.02;76.32;102036.75;5016544;28;20048;-80
2023/04/05 07:48:21;;;;;;;6.47;1.63;;;6.20;99.90;;;5.00;76.28;102032.41;5002382;28;20034;-80
2023/04/05 07:50:47;;;;;;;5.95;1.65;;;6.20;99.90;;;4.94;76.23;102025.47;4999510;28;20029;-78
2023/04/05 07:53:14;;;;;;;9.15;1.80;;;6.10;99.90;;;4.76;76.25;102023.78;5010948;28;20079;-79
2023/04/05 07:55:40;;;;;;;6.35;1.75;;;6.10;99.90;;;4.72;76.38;102030.72;5020078;28;20508;-81
2023/04/05 07:58:06;;;;;;;6.38;1.60;;;6.00;99.90;;;4.71;76.76;102031.63;5008021;28;20816;-79
2023/04/05 08:00:37;;;;;;;3.65;1.63;;;6.00;99.90;;;4.64;76.94;102029.00;4981503;28;20045;-78
2023/04/05 08:03:03;;;;;;;5.88;1.50;;;5.90;99.90;;;4.52;77.01;102032.50;4936211;28;20044;-79
2023/04/05 08:05:30;;;;;;;5.53;1.50;;;5.90;99.90;;;4.49;76.94;102033.38;4957340;28;20032;-79
2023/04/05 08:07:57;;;;;;;8.35;1.75;;;5.80;99.90;;;4.42;77.14;102034.22;4991850;28;20091;-78
2023/04/05 08:10:24;;;;;;;3.22;1.20;;;5.80;99.90;;;4.42;76.81;102029.00;5004017;28;20033;-80
2023/04/05 08:12:53;;;;;;;8.48;1.33;;;5.70;99.90;;;4.44;76.75;102029.88;4976616;28;20046;-79
2023/04/05 08:15:19;;;;;;;8.63;1.38;;;5.70;99.90;;;4.47;76.16;102031.63;4998050;28;20087;-77
2023/04/05 08:17:44;;;;;;;4.30;1.10;;;5.70;99.90;;;4.42;75.79;102023.78;4999893;28;20037;-79
2023/04/05 08:20:11;;;;;;;6.63;2.25;;;5.70;99.90;;;4.48;75.56;102030.75;5005344;28;20815;-78
2023/04/05 08:22:37;;;;;;;2.92;1.10;;;5.70;99.90;;;4.51;75.13;102029.03;4979656;28;20483;-78
2023/04/05 08:25:03;;;;;;;4.38;1.30;;;5.80;99.90;;;4.52;75.31;102024.66;5025053;28;20112;-78
2023/04/05 08:27:28;;;;;;;3.38;1.40;;;5.80;99.90;;;4.44;74.78;102021.19;5020125;28;20025;-78
2023/04/05 08:29:54;;;;;;;5.32;1.58;;;5.80;99.90;;;4.45;75.00;102017.69;4998272;28;20112;-78
2023/04/05 08:32:21;;;;;;;6.75;1.60;;;5.80;99.90;;;4.41;74.67;102011.63;4996347;28;20111;-78
2023/04/05 08:34:46;;;;;;;6.10;1.17;;;5.70;99.90;;;4.44;74.54;102015.97;5022375;28;20597;-79
2023/04/05 08:37:12;;;;;;;3.35;1.05;;;5.80;99.90;;;4.50;74.64;102008.16;5022151;28;20108;-77
2023/04/05 08:39:38;;;;;;;6.07;1.30;;;5.80;99.90;;;4.76;74.65;102009.88;4985174;28;20679;-78
2023/04/05 08:42:16;;;;;;;4.57;1.40;;;6.00;99.90;;;5.04;74.37;102019.34;4987336;28;20033;-78
2023/04/05 08:44:45;;;;;;;5.70;1.40;;;6.20;99.90;;;5.12;73.26;102022.81;5013452;28;20436;-77
2023/04/05 08:47:20;;;;;;;5.63;1.52;;;6.30;99.90;;;5.17;72.77;102021.94;5001175;28;20043;-78
2023/04/05 08:49:53;;;;;;;4.82;1.45;;;6.40;99.90;;;5.26;72.66;102024.50;4984604;28;20050;-78
2023/04/05 08:52:19;;;;;;;7.85;1.38;;;6.50;99.90;;;5.31;72.90;102026.22;4995282;28;20589;-78
2023/04/05 08:54:45;;;;;;;6.35;1.70;;;6.50;99.90;;;5.35;72.68;102019.22;4996652;28;20499;-78
2023/04/05 08:57:12;;;;;;;9.38;1.50;;;6.50;99.90;;;5.41;72.61;102018.34;4980966;28;20128;-77
2023/04/05 08:59:41;;;;;;;5.63;1.42;;;6.60;99.90;;;5.52;72.67;102020.03;5019527;28;20082;-77
2023/04/05 09:02:20;;;;;;;7.38;2.00;;;6.70;99.90;;;5.72;72.25;102019.03;5001853;28;20501;-78
2023/04/05 09:04:50;;;;;;;4.72;1.90;;;6.80;99.90;;;5.79;72.14;102015.53;4997054;28;20504;-78
2023/04/05 09:07:18;;;;;;;9.15;1.67;;;6.90;99.90;;;5.87;71.40;102016.34;5000778;28;20037;-78
2023/04/05 09:09:55;;;;;;;5.45;1.58;;;7.00;99.90;;;6.06;70.79;102008.41;4982579;28;20573;-77
2023/04/05 09:12:25;;;;;;;5.65;1.42;;;7.10;99.90;;;6.16;70.18;102010.94;5017810;28;20037;-78
2023/04/05 09:14:51;;;;;;;5.38;1.70;;;7.30;99.90;;;6.26;69.64;102011.72;5021160;28;20121;-78
2023/04/05 09:17:18;;;;;;;5.03;1.75;;;7.30;99.90;;;6.32;69.51;102003.84;5018683;28;20467;-79
2023/04/05 09:19:52;;;;;;;2.72;1.00;;;7.40;99.90;;;6.34;69.22;101999.47;5021483;28;20055;-78
2023/04/05 09:22:19;;;;;;;5.10;1.50;;;7.50;99.90;;;6.42;68.99;102009.88;5002135;28;20120;-78
2023/04/05 09:24:46;;;;;;;6.60;1.20;;;7.60;99.90;;;6.60;68.61;102015.81;5010409;28;20032;-78
2023/04/05 09:27:17;;;;;;;4.60;1.40;;;7.70;99.90;;;6.82;68.30;102011.22;5015799;28;20083;-79
2023/04/05 09:29:56;;;;;;;6.63;1.40;;;7.90;99.90;;;7.04;67.88;102012.75;4989682;28;20316;-77
2023/04/05 09:32:28;;;;;;;8.32;1.67;;;8.10;99.90;;;7.21;67.03;102023.00;5005223;28;20517;-77
2023/04/05 09:35:02;;;;;;;8.50;1.48;;;8.20;99.90;;;7.43;66.25;102015.78;5006365;28;20029;-79
2023/04/05 09:37:32;;;;;;;3.25;1.20;;;8.40;99.90;;;7.51;65.34;102016.50;4986249;28;20444;-77
2023/04/05 09:40:09;;;;;;;5.25;1.30;;;8.50;99.90;;;7.48;64.82;102013.94;4982169;28;20038;-78
2023/04/05 09:42:45;;;;;;;5.20;1.20;;;8.60;99.90;;;7.55;63.73;102012.09;5000225;28;20033;-78
2023/04/05 09:45:11;;;;;;;;;;;8.60;99.90;;;7.42;62.15;102016.63;4996188;28;20082;-77
2023/04/05 09:47:38;;;;;;;4.40;1.40;;;8.60;99.90;;;7.56;62.43;102016.47;4990553;28;19913;-78
2023/04/05 09:50:25;;;;;;;4.47;1.42;;;8.70;99.90;;;7.75;62.60;102023.19;5011230;28;20033;-77
2023/04/05 09:53:23;;;;;;;3.90;1.70;;;8.80;99.90;;;7.85;63.18;102018.66;4980325;28;20033;-77
2023/04/05 09:55:52;;;;;;;3.90;1.40;;;8.90;99.90;;;7.87;62.88;102011.66;4974512;28;20033;-77
2023/04/05 09:58:20;;;;;;;5.13;1.50;;;8.90;99.90;;;7.89;62.30;102020.38;5028912;28;20051;-77
2023/04/05 10:00:54;;;;;;;5.25;1.27;;;9.00;99.90;;;8.08;62.23;102009.56;4978353;28;20041;-77
2023/04/05 10:03:31;;;;;;;6.43;1.48;;;9.00;99.90;;;8.11;61.26;102013.03;4988180;28;20050;-76
2023/04/05 10:06:03;;;;;;;3.53;1.00;;;9.10;99.90;;;7.92;59.99;102007.19;4998045;28;20037;-77
2023/04/05 10:08:29;;;;;;;3.95;1.10;;;9.00;99.90;;;7.90;59.75;102016.84;5007377;28;20037;-76
2023/04/05 10:11:00;;;;;;;5.07;1.35;;;9.00;99.90;;;7.87;59.34;102011.66;4989919;28;20125;-77
2023/04/05 10:13:29;;;;;;;5.85;1.05;;;9.00;99.90;;;7.75;59.67;102012.72;5000544;28;20416;-76
2023/04/05 10:15:59;;;;;;;6.20;1.63;;;8.90;99.90;;;7.44;60.47;102012.25;5011363;28;20039;-78
2023/04/05 10:18:42;;;;;;;4.75;1.48;;;8.70;99.90;;;7.36;61.02;102009.75;5016527;28;20056;-76
2023/04/05 10:21:12;;;;;;;5.85;2.10;;;8.60;99.90;;;7.11;61.20;102003.06;4991144;28;20026;-76
2023/04/05 10:23:44;;;;;;;5.05;1.27;;;8.40;99.90;;;7.01;61.81;102002.28;4994180;28;20041;-76
2023/04/05 10:26:34;;;;;;;3.95;1.25;;;8.40;99.90;;;7.06;62.15;102007.47;5024025;28;20389;-77
2023/04/05 10:29:13;;;;;;;5.03;1.17;;;8.30;99.90;;;7.02;61.79;102004.03;5025592;28;20047;-76
2023/04/05 10:32:28;;;;;;;6.43;1.38;;;8.30;99.90;;;7.08;61.64;101998.69;5022593;28;20551;-77
2023/04/05 10:35:07;;;;;;;5.47;1.30;;;8.30;99.90;;;7.19;61.23;102003.81;4989010;28;20052;-77